createdAt,value
2019-01-08T03:23:26.524Z,7.63
2019-01-08T03:25:56.503Z,8.00
2019-01-08T03:28:26.262Z,7.37
2019-01-08T03:30:56.077Z,7.37
2019-01-08T03:33:26.004Z,6.97
2019-01-08T03:35:55.707Z,7.83
2019-01-08T03:38:25.630Z,8.73
2019-01-08T03:40:55.593Z,7.90
2019-01-08T03:43:25.286Z,8.77
2019-01-08T03:45:54.992Z,7.60
2019-01-08T03:48:24.767Z,8.07
2019-01-08T03:50:54.613Z,8.27
2019-01-08T03:53:24.536Z,8.70
2019-01-08T03:55:54.327Z,8.43
2019-01-08T03:58:24.121Z,7.70
2019-01-08T04:00:53.764Z,7.60
2019-01-08T04:03:23.518Z,8.40
2019-01-08T04:05:53.543Z,7.67
2019-01-08T04:08:23.198Z,7.67
2019-01-08T04:10:52.999Z,8.77
2019-01-08T04:13:22.926Z,8.00
2019-01-08T04:15:52.839Z,7.43
2019-01-08T04:18:22.864Z,7.93
2019-01-08T04:20:52.754Z,8.47
2019-01-08T04:23:24.881Z,7.97
2019-01-08T04:25:54.866Z,8.10
2019-01-08T04:28:24.674Z,8.73
2019-01-08T04:30:54.392Z,8.87
2019-01-08T04:33:24.084Z,8.20
2019-01-08T04:35:54.071Z,8.37
2019-01-08T04:38:23.914Z,8.83
2019-01-08T04:40:53.738Z,7.60
2019-01-08T04:43:23.633Z,8.30
2019-01-08T04:45:53.442Z,7.90
2019-01-08T04:48:23.360Z,7.73
2019-01-08T04:50:53.093Z,8.37
2019-01-08T04:53:22.947Z,7.13
2019-01-08T04:55:52.581Z,8.30
2019-01-08T04:58:22.238Z,7.47
2019-01-08T05:00:51.943Z,8.40
2019-01-08T05:03:21.694Z,8.13
2019-01-08T05:05:53.470Z,8.47
2019-01-08T05:08:22.926Z,7.43
2019-01-08T05:10:53.914Z,8.33
2019-01-08T05:13:23.808Z,7.90
2019-01-08T05:15:53.618Z,6.73
2019-01-08T05:18:23.513Z,7.57
2019-01-08T05:20:53.232Z,7.57
2019-01-08T05:23:22.871Z,7.97
2019-01-08T05:25:52.753Z,6.13
2019-01-08T05:28:22.756Z,8.33
2019-01-08T05:30:52.626Z,7.50
2019-01-08T05:33:22.489Z,7.93
2019-01-08T05:35:52.341Z,7.40
2019-01-08T05:38:22.030Z,7.87
2019-01-08T05:40:51.853Z,8.10
2019-01-08T05:43:22.846Z,8.30
2019-01-08T05:45:52.393Z,8.30
2019-01-08T05:48:22.108Z,8.63
2019-01-08T05:50:52.091Z,9.13
2019-01-08T05:53:21.731Z,8.40
2019-01-08T05:55:51.645Z,8.43
2019-01-08T05:58:21.437Z,8.67
2019-01-08T06:00:51.242Z,10.73
2019-01-08T06:03:20.986Z,8.50
2019-01-08T06:05:50.983Z,8.87
2019-01-08T06:08:20.961Z,9.03
2019-01-08T06:10:50.730Z,8.40
2019-01-08T06:13:20.535Z,9.17
2019-01-08T06:15:50.667Z,8.57
2019-01-08T06:18:20.291Z,8.47
2019-01-08T06:20:50.214Z,10.07
2019-01-08T06:23:22.403Z,10.07
2019-01-08T06:25:52.262Z,9.17
2019-01-08T06:28:21.859Z,9.40
2019-01-08T06:30:51.504Z,10.33
2019-01-08T06:33:21.226Z,9.43
2019-01-08T06:35:50.879Z,9.07
2019-01-08T06:38:20.852Z,9.70
2019-01-08T06:40:57.530Z,12.77
2019-01-08T06:43:22.558Z,9.93
2019-01-08T06:45:52.358Z,10.33
2019-01-08T06:48:22.136Z,10.63
2019-01-08T06:50:56.301Z,12.07
2019-01-08T06:53:23.559Z,13.53
2019-01-08T06:55:53.753Z,14.23
2019-01-08T06:58:23.433Z,11.60
2019-01-08T07:00:53.178Z,11.07
2019-01-08T07:03:22.875Z,12.30
2019-01-08T07:05:52.800Z,11.63
2019-01-08T07:08:22.634Z,12.43
2019-01-08T07:10:52.466Z,10.90
2019-01-08T07:13:22.187Z,12.13
2019-01-08T07:15:51.858Z,11.63
2019-01-08T07:18:21.541Z,11.53
2019-01-08T07:20:51.351Z,10.40
2019-01-08T07:23:22.376Z,13.50
2019-01-08T07:25:52.133Z,12.33
2019-01-08T07:28:23.321Z,13.27
2019-01-08T07:30:53.087Z,11.97
2019-01-08T07:33:23.117Z,13.60
2019-01-08T07:35:52.783Z,10.80
2019-01-08T07:38:22.430Z,11.77
2019-01-08T07:40:52.123Z,11.37
2019-01-08T07:43:21.902Z,12.07
2019-01-08T07:45:51.664Z,12.33
2019-01-08T07:48:21.562Z,11.93
2019-01-08T07:50:52.502Z,10.87
2019-01-08T07:53:22.144Z,10.57
2019-01-08T07:55:51.853Z,9.37
2019-01-08T07:58:21.793Z,10.43
2019-01-08T08:00:51.703Z,9.33
2019-01-08T08:03:21.682Z,10.97
2019-01-08T08:05:51.713Z,9.87
2019-01-08T08:08:22.537Z,10.93
2019-01-08T08:10:52.164Z,12.27
2019-01-08T08:13:22.026Z,11.00
2019-01-08T08:15:52.079Z,13.20
2019-01-08T08:18:21.913Z,7.57
2019-01-08T08:20:52.988Z,10.40
2019-01-08T08:23:22.866Z,9.17
2019-01-08T08:25:52.690Z,9.97
2019-01-08T08:28:22.487Z,11.77
2019-01-08T08:30:58.612Z,10.07
2019-01-08T08:33:24.065Z,10.63
2019-01-08T08:35:53.827Z,11.13
2019-01-08T08:38:23.811Z,10.57
2019-01-08T08:40:53.531Z,10.60
2019-01-08T08:43:24.481Z,11.67
2019-01-08T08:45:54.091Z,11.23
2019-01-08T08:48:23.767Z,11.57
2019-01-08T08:50:54.124Z,10.90
2019-01-08T08:53:23.935Z,12.30
2019-01-08T08:55:53.673Z,12.47
2019-01-08T08:58:23.226Z,10.90
2019-01-08T09:00:52.975Z,11.07
2019-01-08T09:03:22.909Z,10.70
2019-01-08T09:05:52.718Z,10.70
2019-01-08T09:08:22.395Z,11.43
2019-01-08T09:10:53.480Z,10.17
2019-01-08T09:13:23.259Z,10.47
2019-01-08T09:15:53.074Z,10.63
2019-01-08T09:18:23.155Z,11.17
2019-01-08T09:20:52.908Z,9.20
2019-01-08T09:23:22.694Z,12.60
2019-01-08T09:25:53.882Z,9.67
2019-01-08T09:28:23.708Z,10.77
2019-01-08T09:30:53.563Z,8.70
2019-01-08T09:33:23.451Z,8.77
2019-01-08T09:35:53.117Z,9.80
2019-01-08T09:38:22.940Z,10.57
2019-01-08T09:40:53.978Z,11.30
2019-01-08T09:43:23.935Z,10.57
2019-01-08T09:45:53.724Z,12.43
2019-01-08T09:48:23.678Z,9.53
2019-01-08T09:50:53.444Z,10.97
2019-01-08T09:53:23.025Z,11.07
2019-01-08T09:55:53.233Z,13.73
2019-01-08T09:58:23.017Z,11.60
2019-01-08T10:00:52.624Z,14.27
2019-01-08T10:03:22.463Z,11.60
2019-01-08T10:05:52.145Z,11.03
2019-01-08T10:08:21.897Z,13.53
2019-01-08T10:10:51.754Z,12.53
2019-01-08T10:13:21.665Z,9.13
2019-01-08T10:15:51.685Z,10.07
2019-01-08T10:18:21.586Z,9.77
2019-01-08T10:20:51.667Z,11.27
2019-01-08T10:23:23.865Z,8.50
2019-01-08T10:25:54.108Z,9.67
2019-01-08T10:28:23.777Z,8.83
2019-01-08T10:30:53.791Z,9.97
2019-01-08T10:33:23.527Z,11.07
2019-01-08T10:35:53.358Z,12.93
2019-01-08T10:38:23.425Z,11.03
2019-01-08T10:40:53.134Z,11.77
2019-01-08T10:43:23.136Z,12.00
2019-01-08T10:45:53.052Z,12.40
2019-01-08T10:48:22.949Z,13.03
2019-01-08T10:50:52.659Z,11.93
2019-01-08T10:53:23.879Z,11.17
2019-01-08T10:55:53.852Z,16.50
2019-01-08T10:58:23.634Z,9.80
2019-01-08T11:00:54.715Z,9.47
2019-01-08T11:03:24.600Z,8.20
2019-01-08T11:05:54.306Z,6.53
2019-01-08T11:08:24.487Z,10.80
2019-01-08T11:10:54.430Z,5.10
2019-01-08T11:13:25.196Z,11.40
2019-01-08T11:15:54.856Z,15.17
2019-01-08T11:18:24.610Z,13.47
2019-01-08T11:20:54.513Z,13.33
2019-01-08T11:23:24.385Z,10.53
2019-01-08T11:25:54.148Z,11.27
2019-01-08T11:28:23.859Z,10.07
2019-01-08T11:30:53.892Z,12.43
2019-01-08T11:33:23.806Z,9.57
2019-01-08T11:35:53.413Z,7.80
2019-01-08T11:38:24.385Z,9.93
2019-01-08T11:40:54.544Z,11.97
2019-01-08T11:43:24.152Z,10.70
2019-01-08T11:45:54.133Z,12.50
2019-01-08T11:48:24.007Z,13.27
2019-01-08T11:50:53.815Z,15.63
2019-01-08T11:53:23.564Z,12.77
2019-01-08T11:55:53.353Z,13.17
2019-01-08T11:58:23.573Z,11.87
2019-01-08T12:00:54.519Z,11.57
2019-01-08T12:03:24.232Z,12.47
2019-01-08T12:05:54.499Z,11.67
2019-01-08T12:08:25.605Z,10.60
2019-01-08T12:10:55.471Z,13.47
2019-01-08T12:13:25.922Z,14.23
2019-01-08T12:15:58.257Z,10.97
2019-01-08T12:18:28.149Z,10.77
2019-01-08T12:20:57.922Z,11.40
2019-01-08T12:23:28.901Z,11.70
2019-01-08T12:25:58.499Z,9.47
2019-01-08T12:28:29.530Z,10.83
2019-01-08T12:30:59.361Z,11.10
2019-01-08T12:33:29.080Z,11.23
2019-01-08T12:36:00.336Z,12.13
2019-01-08T12:38:30.031Z,11.13
2019-01-08T12:40:59.942Z,9.80
2019-01-08T12:43:29.835Z,8.97
2019-01-08T12:45:59.353Z,9.23
2019-01-08T12:48:29.202Z,11.63
2019-01-08T12:50:58.989Z,10.90
2019-01-08T12:53:28.594Z,8.77
2019-01-08T12:55:58.303Z,11.00
2019-01-08T12:58:28.148Z,9.10
2019-01-08T13:00:57.952Z,10.70
2019-01-08T13:03:27.857Z,11.47
2019-01-08T13:05:58.955Z,10.70
2019-01-08T13:08:28.699Z,11.07
2019-01-08T13:10:58.639Z,10.50
2019-01-08T13:13:28.589Z,11.30
2019-01-08T13:15:58.366Z,11.93
2019-01-08T13:18:28.380Z,11.00
2019-01-08T13:20:58.260Z,11.83
2019-01-08T13:23:27.930Z,11.00
2019-01-08T13:25:57.938Z,11.03
2019-01-08T13:28:27.909Z,12.43
2019-01-08T13:30:57.559Z,9.77
2019-01-08T13:33:27.272Z,12.47
2019-01-08T13:35:58.229Z,10.50
2019-01-08T13:38:27.980Z,12.20
2019-01-08T13:40:57.683Z,11.80
2019-01-08T13:43:27.517Z,11.73
2019-01-08T13:45:57.479Z,12.50
2019-01-08T13:48:27.210Z,13.30
2019-01-08T13:50:57.066Z,11.43
2019-01-08T13:53:26.883Z,11.10
2019-01-08T13:55:56.602Z,10.60
2019-01-08T13:58:26.545Z,10.87
2019-01-08T14:00:56.439Z,11.27
2019-01-08T14:03:26.387Z,11.37
2019-01-08T14:05:56.221Z,10.90
2019-01-08T14:08:25.880Z,12.27
2019-01-08T14:10:56.542Z,12.20
2019-01-08T14:13:26.727Z,12.53
2019-01-08T14:15:56.546Z,11.43
2019-01-08T14:18:26.690Z,13.23
2019-01-08T14:20:56.559Z,11.93
2019-01-08T14:23:26.432Z,12.90
2019-01-08T14:25:57.012Z,12.40
2019-01-08T14:28:26.649Z,11.93
2019-01-08T14:30:56.478Z,14.73
2019-01-08T14:33:26.268Z,12.10
2019-01-08T14:35:56.244Z,12.30
2019-01-08T14:38:26.218Z,11.97
2019-01-08T14:40:56.046Z,11.90
2019-01-08T14:43:25.815Z,11.33
2019-01-08T14:45:55.809Z,11.50
2019-01-08T14:48:25.598Z,12.73
2019-01-08T14:50:55.455Z,11.50
2019-01-08T14:53:26.137Z,11.77
2019-01-08T14:55:55.948Z,12.57
2019-01-08T14:58:25.882Z,12.70
2019-01-08T15:00:55.678Z,12.13
2019-01-08T15:03:25.482Z,12.30
2019-01-08T15:05:55.322Z,11.90
2019-01-08T15:08:25.172Z,12.73
2019-01-08T15:10:54.835Z,13.97
2019-01-08T15:13:24.894Z,14.23
2019-01-08T15:15:54.756Z,12.57
2019-01-08T15:18:24.610Z,12.50
2019-01-08T15:20:54.321Z,13.00
2019-01-08T15:23:23.971Z,13.20
2019-01-08T15:25:56.186Z,12.47
2019-01-08T15:28:25.944Z,15.03
2019-01-08T15:30:55.799Z,15.93
2019-01-08T15:33:25.726Z,16.30
2019-01-08T15:35:55.745Z,15.33
2019-01-08T15:38:25.469Z,24.47
2019-01-08T15:40:56.689Z,15.80
2019-01-08T15:43:26.345Z,13.73
2019-01-08T15:45:55.944Z,14.20
2019-01-08T15:48:25.901Z,13.73
2019-01-08T15:50:55.871Z,13.80
2019-01-08T15:53:25.810Z,14.37
2019-01-08T15:55:55.553Z,15.20
2019-01-08T15:58:25.494Z,11.70
2019-01-08T16:00:55.534Z,13.53
2019-01-08T16:03:26.634Z,13.20
2019-01-08T16:05:56.487Z,13.93
2019-01-08T16:08:26.448Z,14.87
2019-01-08T16:10:56.384Z,12.60
2019-01-08T16:13:26.130Z,13.17
2019-01-08T16:15:57.186Z,13.93
2019-01-08T16:18:27.008Z,12.00
2019-01-08T16:20:56.755Z,12.30
2019-01-08T16:23:26.501Z,12.77
2019-01-08T16:25:56.741Z,13.43
2019-01-08T16:28:26.648Z,12.40
2019-01-08T16:30:56.505Z,13.47
2019-01-08T16:33:26.292Z,14.80
2019-01-08T16:35:56.090Z,14.33
2019-01-08T16:38:26.010Z,13.37
2019-01-08T16:40:56.037Z,13.23
2019-01-08T16:43:26.752Z,14.53
2019-01-08T16:45:58.386Z,13.17
2019-01-08T16:48:28.233Z,14.33
2019-01-08T16:50:58.109Z,14.63
2019-01-08T16:53:27.937Z,14.03
2019-01-08T16:55:57.799Z,13.90
2019-01-08T16:58:27.859Z,14.57
2019-01-08T17:00:57.402Z,12.53
2019-01-08T17:03:27.242Z,13.13
2019-01-08T17:05:57.194Z,14.10
2019-01-08T17:08:26.857Z,12.83
2019-01-08T17:10:56.688Z,12.80
2019-01-08T17:13:27.720Z,13.57
2019-01-08T17:15:57.532Z,13.00
2019-01-08T17:18:27.353Z,12.77
2019-01-08T17:20:57.356Z,14.33
2019-01-08T17:23:27.043Z,12.50
2019-01-08T17:25:56.862Z,13.90
2019-01-08T17:28:26.710Z,13.07
2019-01-08T17:30:56.539Z,12.00
2019-01-08T17:33:33.808Z,11.57
2019-01-08T17:35:57.998Z,12.43
2019-01-08T17:38:29.097Z,11.90
2019-01-08T17:40:58.757Z,11.23
2019-01-08T17:43:33.406Z,12.23
2019-01-08T17:46:00.737Z,10.17
2019-01-08T17:48:30.653Z,11.40
2019-01-08T17:51:02.912Z,13.60
2019-01-08T17:53:32.694Z,17.30
2019-01-08T17:56:02.743Z,19.30
2019-01-08T17:58:40.887Z,19.93
2019-01-08T18:01:20.072Z,19.33
2019-01-08T18:03:50.332Z,16.57
2019-01-08T18:06:20.219Z,17.73
2019-01-08T18:08:50.412Z,15.90
2019-01-08T18:11:20.152Z,15.43
2019-01-08T18:13:50.553Z,16.57
2019-01-08T18:16:21.639Z,17.63
2019-01-08T18:18:51.573Z,18.53
2019-01-08T18:21:21.730Z,16.23
2019-01-08T18:23:51.716Z,12.50
2019-01-08T18:26:21.827Z,13.20
2019-01-08T18:28:52.969Z,14.00
2019-01-08T18:31:22.991Z,13.53
2019-01-08T18:33:53.032Z,11.93
2019-01-08T18:36:23.223Z,16.30
2019-01-08T18:38:53.070Z,15.40
2019-01-08T18:41:22.883Z,17.47
2019-01-08T18:43:52.714Z,15.57
2019-01-08T18:46:22.570Z,18.30
2019-01-08T18:48:52.629Z,14.47
2019-01-08T18:51:22.651Z,17.87
2019-01-08T18:53:52.663Z,16.73
2019-01-08T18:56:22.733Z,14.47
2019-01-08T18:58:52.665Z,16.23
2019-01-08T19:01:22.689Z,18.07
2019-01-08T19:03:59.781Z,17.43
2019-01-08T19:06:24.539Z,18.53
2019-01-08T19:09:32.991Z,19.43
2019-01-08T19:12:02.832Z,19.10
2019-01-08T19:14:38.037Z,19.10
2019-01-08T19:17:08.034Z,17.00
2019-01-08T19:19:37.923Z,15.63
2019-01-08T19:22:08.096Z,16.50
2019-01-08T19:24:38.039Z,15.97
2019-01-08T19:27:07.997Z,14.20
2019-01-08T19:29:39.134Z,14.40
2019-01-08T19:32:09.170Z,14.37
2019-01-08T19:34:38.971Z,12.50
2019-01-08T19:37:08.679Z,15.50
2019-01-08T19:39:38.725Z,17.33
2019-01-08T19:42:08.888Z,15.13
2019-01-08T19:44:38.933Z,16.27
2019-01-08T19:47:09.961Z,15.67
2019-01-08T19:49:39.831Z,17.27
2019-01-08T19:52:09.782Z,18.07
2019-01-08T19:54:39.729Z,16.10
2019-01-08T19:57:09.563Z,16.63
2019-01-08T19:59:39.354Z,18.23
2019-01-08T20:02:09.058Z,17.47
2019-01-08T20:04:39.030Z,16.97
2019-01-08T20:07:09.002Z,14.30
2019-01-08T20:09:38.791Z,11.33
2019-01-08T20:12:08.642Z,13.73
2019-01-08T20:14:38.426Z,11.83
2019-01-08T20:17:08.241Z,11.80
2019-01-08T20:19:38.184Z,9.47
2019-01-08T20:22:07.940Z,9.10
2019-01-08T20:28:35.997Z,10.77
2019-01-08T20:31:54.050Z,10.13
2019-01-08T20:34:53.578Z,9.60
2019-01-08T20:38:05.181Z,10.67
2019-01-08T20:45:10.721Z,14.47
2019-01-08T20:48:30.019Z,15.97
2019-01-08T20:51:56.092Z,13.83
2019-01-08T20:58:41.971Z,15.03
2019-01-08T21:02:04.383Z,14.70
2019-01-08T21:08:44.131Z,12.90
2019-01-08T21:12:02.243Z,10.37
2019-01-08T21:15:09.465Z,12.47
2019-01-08T21:18:28.108Z,9.70
2019-01-08T21:21:26.906Z,13.63
2019-01-08T21:24:28.392Z,12.00
2019-01-08T21:27:47.115Z,14.53
2019-01-08T21:31:09.972Z,10.67
2019-01-08T21:34:13.753Z,12.30
2019-01-08T21:37:21.948Z,13.67
2019-01-08T21:40:17.584Z,12.40
2019-01-08T21:43:35.190Z,12.07
2019-01-08T21:48:04.814Z,13.87
2019-01-08T21:53:44.714Z,10.80
2019-01-08T22:14:03.866Z,9.13
2019-01-08T22:17:08.849Z,9.17
2019-01-08T22:20:51.609Z,10.17
2019-01-08T22:24:25.992Z,9.17
2019-01-08T22:27:11.525Z,9.93
2019-01-08T22:30:13.389Z,10.83
2019-01-08T22:33:24.470Z,10.60
2019-01-08T22:36:48.913Z,10.20
2019-01-08T22:40:10.282Z,11.10
2019-01-08T22:43:45.772Z,8.87
2019-01-08T22:47:17.602Z,8.90
2019-01-08T22:50:21.149Z,10.47
2019-01-08T22:53:57.121Z,10.03
2019-01-08T23:00:39.796Z,8.13
2019-01-08T23:04:11.271Z,10.43
2019-01-08T23:11:24.193Z,10.20
2019-01-08T23:14:13.986Z,8.87
2019-01-08T23:21:05.630Z,11.00
2019-01-08T23:23:58.017Z,10.73
2019-01-08T23:27:02.779Z,12.57
2019-01-08T23:30:13.039Z,11.80
2019-01-08T23:33:08.687Z,12.23
2019-01-08T23:36:25.265Z,13.07
2019-01-08T23:39:29.792Z,11.47
2019-01-08T23:43:07.949Z,11.63
2019-01-08T23:46:29.823Z,12.67
2019-01-08T23:50:10.853Z,9.93
2019-01-08T23:57:14.250Z,6.67
